Time;durP1;ratioP1;P1;durP2;ratioP2;P2;SDS_P1;SDS_P2;PMS_P1;PMS_P2;Temp;Humidity;BMP_temperature;BMP_pressure;BME280_temperature;BME280_humidity;BME280_pressure;Samples;Min_cycle;Max_cycle;Signal;HPM_P1;HPM_P2
2020/12/09 00:01:10;;;;;;;32.25;22.63;;;3.50;94.30;;;;;;5016802;28;20017;-80
2020/12/09 00:03:36;;;;;;;28.42;19.77;;;3.70;94.40;;;;;;5033314;28;20036;-79
2020/12/09 00:06:02;;;;;;;28.83;21.33;;;1.80;99.90;;;;;;5034133;28;20026;-80
2020/12/09 00:08:27;;;;;;;31.23;21.88;;;2.00;99.80;;;;;;5033084;28;20079;-80
2020/12/09 00:10:53;;;;;;;28.40;21.17;;;1.80;94.00;;;;;;5032745;28;20087;-80
2020/12/09 00:13:18;;;;;;;29.40;21.33;;;2.00;93.80;;;;;;5033232;28;20064;-80
2020/12/09 00:15:44;;;;;;;31.58;22.17;;;1.80;99.90;;;;;;5033956;28;20025;-80
2020/12/09 00:18:10;;;;;;;30.40;21.15;;;;;;;;;;5032847;28;20022;-80
2020/12/09 00:20:35;;;;;;;29.38;21.58;;;1.80;98.00;;;;;;5033893;28;20021;-80
2020/12/09 00:23:01;;;;;;;30.00;20.58;;;;;;;;;;5032797;28;20108;-79
2020/12/09 00:25:27;;;;;;;27.98;20.83;;;1.90;92.90;;;;;;5032211;28;20021;-80
2020/12/09 00:27:53;;;;;;;30.77;22.33;;;1.80;99.90;;;;;;5032401;28;20048;-79
2020/12/09 00:30:18;;;;;;;32.88;21.70;;;1.80;99.90;;;;;;5032814;28;20064;-80
2020/12/09 00:32:44;;;;;;;28.27;20.50;;;1.90;99.90;;;;;;5032401;28;20083;-80
2020/12/09 00:35:09;;;;;;;29.83;21.45;;;3.40;94.30;;;;;;5032590;28;20028;-80
2020/12/09 00:37:35;;;;;;;30.40;21.70;;;3.60;94.30;;;;;;5033896;28;20454;-80
2020/12/09 00:40:02;;;;;;;29.45;20.30;;;2.10;99.90;;;;;;5032431;28;20017;-80
2020/12/09 00:42:30;;;;;;;27.98;21.30;;;2.30;99.90;;;;;;5032172;28;20025;-80
2020/12/09 00:44:55;;;;;;;29.50;20.83;;;2.20;99.90;;;;;;5032206;28;20018;-79
2020/12/09 00:47:21;;;;;;;28.77;20.58;;;;;;;;;;5033278;28;20570;-80
2020/12/09 00:52:31;;;;;;;30.20;20.58;;;2.10;99.90;;;;;;5033433;28;20367;-79
2020/12/09 00:54:57;;;;;;;27.25;20.42;;;;;;;;;;5033020;28;20029;-79
2020/12/09 00:57:23;;;;;;;27.58;21.98;;;1.90;99.90;;;;;;5032081;28;20022;-80
2020/12/09 00:59:49;;;;;;;30.40;21.23;;;2.10;99.90;;;;;;5015533;28;20359;-80
2020/12/09 01:02:14;;;;;;;30.42;21.40;;;2.10;99.90;;;;;;5032227;28;20025;-80
2020/12/09 01:04:40;;;;;;;29.08;20.52;;;1.70;99.90;;;;;;5031437;28;20026;-80
2020/12/09 01:07:05;;;;;;;27.33;19.67;;;2.20;93.80;;;;;;5032064;28;20027;-79
2020/12/09 01:09:31;;;;;;;30.23;21.00;;;2.60;93.70;;;;;;5015321;28;20025;-80
2020/12/09 01:12:03;;;;;;;29.65;21.58;;;2.70;93.90;;;;;;5031889;28;20506;-80
2020/12/09 01:14:29;;;;;;;29.27;20.90;;;2.20;93.90;;;;;;5032742;28;20043;-79
2020/12/09 01:16:55;;;;;;;31.85;21.63;;;1.80;99.90;;;;;;5031839;28;20031;-80
2020/12/09 01:19:22;;;;;;;29.02;21.33;;;2.20;99.90;;;;;;5031566;28;20071;-80
2020/12/09 01:21:48;;;;;;;29.20;19.77;;;2.00;99.90;;;;;;5031545;28;20033;-79
2020/12/09 01:24:13;;;;;;;30.20;20.67;;;2.10;99.90;;;;;;5031410;28;20092;-79
2020/12/09 01:26:39;;;;;;;29.45;20.20;;;4.30;94.80;;;;;;5031388;28;20049;-80
2020/12/09 01:29:04;;;;;;;27.20;19.50;;;2.00;99.90;;;;;;5031763;28;20041;-79
2020/12/09 01:31:30;;;;;;;30.90;21.33;;;1.90;99.40;;;;;;5015024;28;20041;-80
2020/12/09 01:33:56;;;;;;;24.40;18.35;;;3.00;94.10;;;;;;5032636;28;20109;-80
2020/12/09 01:36:22;;;;;;;27.20;20.30;;;3.90;94.10;;;;;;5031281;28;20083;-80
2020/12/09 01:38:47;;;;;;;27.38;20.48;;;3.10;94.10;;;;;;5030651;28;20021;-81
2020/12/09 01:41:13;;;;;;;30.42;21.27;;;;;;;;;;5031528;28;20520;-80
2020/12/09 01:43:43;;;;;;;28.58;21.20;;;2.10;99.90;;;;;;5014955;28;20032;-80
2020/12/09 01:46:14;;;;;;;25.05;19.58;;;2.10;99.90;;;;;;5014941;28;20383;-80
2020/12/09 01:48:40;;;;;;;27.70;20.02;;;;;;;;;;5031527;28;20104;-80
2020/12/09 01:51:06;;;;;;;27.25;19.92;;;2.00;99.90;;;;;;5031128;28;20018;-80
2020/12/09 01:53:32;;;;;;;24.77;18.48;;;;;;;;;;5031536;28;20044;-80
2020/12/09 01:55:57;;;;;;;26.83;20.83;;;2.20;99.90;;;;;;5031189;28;20467;-79
2020/12/09 01:58:23;;;;;;;27.38;19.90;;;2.30;99.90;;;;;;5031094;28;20026;-79
2020/12/09 02:00:49;;;;;;;29.38;22.88;;;;;;;;;;5031112;28;20395;-80
2020/12/09 02:03:15;;;;;;;30.05;21.75;;;;;;;;;;5031130;28;20032;-80
2020/12/09 02:05:41;;;;;;;26.50;19.13;;;1.90;99.90;;;;;;5023602;28;20364;-80
2020/12/09 02:08:07;;;;;;;26.05;20.25;;;1.80;97.90;;;;;;5002954;28;20474;-81
2020/12/09 02:10:33;;;;;;;26.58;21.02;;;;;;;;;;5009827;28;20026;-79
2020/12/09 02:12:58;;;;;;;23.95;18.55;;;2.00;99.90;;;;;;5010901;28;20030;-80
2020/12/09 02:15:24;;;;;;;23.50;18.40;;;1.90;99.90;;;;;;5010739;28;20022;-80
2020/12/09 02:17:50;;;;;;;27.10;19.85;;;;;;;;;;5011281;28;20104;-80
2020/12/09 02:20:16;;;;;;;25.98;18.77;;;1.90;99.90;;;;;;5011219;28;20010;-80
2020/12/09 02:22:50;;;;;;;25.58;19.00;;;1.90;99.90;;;;;;5012454;28;20034;-80
2020/12/09 02:25:16;;;;;;;29.58;21.33;;;2.10;99.90;;;;;;4995318;28;20495;-80
2020/12/09 02:27:42;;;;;;;29.05;21.15;;;;;;;;;;5011129;28;20046;-80
2020/12/09 02:30:08;;;;;;;28.90;20.58;;;;;;;;;;5012375;28;20026;-80
2020/12/09 02:32:34;;;;;;;29.33;22.27;;;;;;;;;;4994934;28;20460;-80
2020/12/09 02:34:59;;;;;;;30.63;21.60;;;2.20;99.90;;;;;;4994828;28;20053;-80
2020/12/09 02:37:25;;;;;;;25.23;19.60;;;2.10;99.90;;;;;;4978746;28;20435;-81
2020/12/09 02:39:51;;;;;;;26.00;19.58;;;2.00;99.90;;;;;;4995023;28;20033;-80
2020/12/09 02:42:16;;;;;;;28.65;21.70;;;2.10;99.90;;;;;;4978522;28;20117;-79
2020/12/09 02:44:42;;;;;;;30.08;20.75;;;2.20;99.90;;;;;;4994987;28;20022;-79
2020/12/09 02:47:07;;;;;;;28.95;20.20;;;2.10;99.90;;;;;;4978282;28;20110;-80
2020/12/09 02:49:33;;;;;;;26.95;20.25;;;2.30;99.90;;;;;;4980252;28;20476;-80
2020/12/09 02:51:59;;;;;;;24.23;19.08;;;2.10;99.90;;;;;;5014707;28;20018;-80
2020/12/09 02:54:24;;;;;;;27.02;19.63;;;2.10;99.90;;;;;;5014668;28;20065;-80
2020/12/09 02:56:50;;;;;;;31.40;20.67;;;2.10;99.90;;;;;;5015956;28;20033;-80
2020/12/09 02:59:15;;;;;;;27.17;20.20;;;2.00;99.90;;;;;;5015608;28;20033;-80
2020/12/09 03:01:41;;;;;;;26.33;19.67;;;2.10;99.90;;;;;;4998415;28;20030;-79
2020/12/09 03:04:06;;;;;;;25.05;20.17;;;2.30;99.60;;;;;;5015471;28;20060;-80
2020/12/09 03:06:33;;;;;;;29.00;20.83;;;;;;;;;;5015728;28;20057;-80
2020/12/09 03:08:59;;;;;;;27.33;21.25;;;;;;;;;;5014422;28;20029;-81
2020/12/09 03:11:24;;;;;;;28.02;19.60;;;2.10;99.90;;;;;;5015576;28;20030;-81
2020/12/09 03:13:50;;;;;;;27.55;20.83;;;1.90;99.90;;;;;;5014380;28;20103;-79
2020/12/09 03:16:15;;;;;;;28.05;20.13;;;2.40;99.90;;;;;;5014409;28;20030;-81
2020/12/09 03:18:41;;;;;;;27.13;20.65;;;2.10;99.90;;;;;;5014030;28;20030;-80
2020/12/09 03:21:06;;;;;;;27.23;19.77;;;2.30;99.90;;;;;;5014010;28;20025;-80
2020/12/09 03:23:34;;;;;;;28.65;19.52;;;2.10;95.00;;;;;;4997950;28;20033;-79
2020/12/09 03:25:59;;;;;;;27.55;20.23;;;2.40;99.90;;;;;;4997785;28;20857;-80
2020/12/09 03:28:25;;;;;;;27.45;20.30;;;2.00;99.90;;;;;;4997472;28;20129;-80
2020/12/09 03:30:50;;;;;;;29.60;20.05;;;2.10;99.90;;;;;;4997582;28;20113;-80
2020/12/09 03:33:16;;;;;;;26.67;19.52;;;2.00;99.90;;;;;;5014894;28;20029;-80
2020/12/09 03:35:42;;;;;;;25.00;18.83;;;2.00;99.90;;;;;;4997688;28;20029;-80
2020/12/09 03:38:09;;;;;;;27.05;21.15;;;2.10;99.90;;;;;;5015274;28;20018;-80
2020/12/09 03:40:35;;;;;;;23.35;18.48;;;2.00;99.90;;;;;;5013667;28;20341;-80
2020/12/09 03:43:00;;;;;;;25.40;19.23;;;3.00;95.70;;;;;;4997641;28;20025;-80
2020/12/09 03:45:26;;;;;;;24.10;18.75;;;2.30;99.90;;;;;;4997528;28;20031;-80
2020/12/09 03:47:51;;;;;;;26.95;19.58;;;2.00;99.90;;;;;;4997094;28;20399;-80
2020/12/09 03:50:17;;;;;;;23.80;18.20;;;2.00;95.30;;;;;;5013728;28;20026;-81
2020/12/09 03:52:43;;;;;;;25.77;19.40;;;;;;;;;;5013567;28;20057;-80
2020/12/09 03:55:09;;;;;;;22.63;18.20;;;;;;;;;;5013374;28;20468;-80
2020/12/09 03:57:35;;;;;;;26.30;19.67;;;2.20;99.90;;;;;;5013631;28;20112;-80
2020/12/09 04:00:00;;;;;;;25.90;19.10;;;2.50;95.40;;;;;;5012961;28;20091;-81
2020/12/09 04:02:26;;;;;;;24.15;18.70;;;;;;;;;;4996432;28;20025;-80
2020/12/09 04:04:52;;;;;;;25.15;19.02;;;;;;;;;;5014642;28;20053;-81
2020/12/09 04:07:18;;;;;;;25.38;18.42;;;;;;;;;;5013224;28;20499;-80
2020/12/09 04:09:44;;;;;;;26.33;19.98;;;;;;;;;;5014665;28;20026;-80
2020/12/09 04:12:10;;;;;;;28.73;19.95;;;;;;;;;;5013162;28;20029;-81
2020/12/09 04:14:36;;;;;;;21.73;18.25;;;2.00;99.90;;;;;;5014154;28;20079;-80
2020/12/09 04:17:02;;;;;;;28.77;20.33;;;;;;;;;;4996744;28;20026;-80
2020/12/09 04:19:27;;;;;;;24.33;18.40;;;2.40;99.90;;;;;;5012940;28;20022;-80
2020/12/09 04:21:53;;;;;;;22.73;18.20;;;2.00;99.90;;;;;;5012952;28;20022;-81
2020/12/09 04:24:19;;;;;;;26.08;20.33;;;2.10;99.90;;;;;;5013226;28;20069;-80
2020/12/09 04:26:44;;;;;;;25.08;18.50;;;2.10;99.90;;;;;;5012653;28;20026;-80
2020/12/09 04:29:10;;;;;;;23.00;17.77;;;2.30;99.90;;;;;;5014029;28;20026;-81
2020/12/09 04:31:35;;;;;;;24.77;18.55;;;2.10;99.90;;;;;;5012600;28;20053;-80
2020/12/09 04:34:01;;;;;;;29.70;19.23;;;1.90;99.90;;;;;;5014054;28;20038;-80
2020/12/09 04:36:27;;;;;;;23.75;19.30;;;2.30;99.90;;;;;;5012611;28;20060;-81
2020/12/09 04:38:52;;;;;;;26.95;20.75;;;1.80;99.90;;;;;;4996475;28;20030;-80
2020/12/09 04:41:18;;;;;;;29.90;21.55;;;1.90;99.90;;;;;;5013688;28;20029;-80
2020/12/09 04:43:44;;;;;;;27.40;20.27;;;1.90;99.90;;;;;;5012439;28;20573;-80
2020/12/09 04:46:10;;;;;;;28.52;20.25;;;;;;;;;;4995996;28;20018;-80
2020/12/09 04:48:49;;;;;;;27.73;20.90;;;2.10;99.90;;;;;;5012630;28;20103;-80
2020/12/09 04:51:35;;;;;;;28.20;20.10;;;2.10;99.90;;;;;;4995843;28;20030;-80
2020/12/09 04:54:01;;;;;;;26.67;20.50;;;;;;;;;;4997060;28;20480;-80
2020/12/09 04:56:33;;;;;;;27.73;20.58;;;2.20;99.90;;;;;;5012170;28;20013;-81
2020/12/09 04:58:58;;;;;;;28.27;20.45;;;2.00;99.90;;;;;;4996726;28;20364;-80
2020/12/09 05:01:24;;;;;;;29.17;21.83;;;2.30;99.90;;;;;;4995820;28;20030;-80
2020/12/09 05:03:50;;;;;;;27.55;20.58;;;2.00;98.40;;;;;;4995959;28;20029;-80
2020/12/09 05:06:20;;;;;;;27.65;19.60;;;2.10;96.10;;;;;;4995938;28;20018;-80
2020/12/09 05:08:56;;;;;;;25.33;19.30;;;1.90;99.90;;;;;;4979540;28;20026;-80
2020/12/09 05:11:25;;;;;;;29.85;20.85;;;2.10;99.90;;;;;;5012388;28;20026;-80
2020/12/09 05:13:52;;;;;;;28.30;21.20;;;;;;;;;;4979595;28;20038;-80
2020/12/09 05:16:19;;;;;;;24.92;19.25;;;2.20;99.90;;;;;;5013490;28;20060;-80
2020/12/09 05:18:45;;;;;;;27.83;19.25;;;;;;;;;;4979588;28;20033;-80
2020/12/09 05:21:16;;;;;;;27.63;20.80;;;2.10;94.80;;;;;;4995642;28;20017;-80
2020/12/09 05:23:47;;;;;;;25.07;19.53;;;2.00;99.90;;;;;;4979296;28;20084;-80
2020/12/09 05:26:18;;;;;;;24.83;17.33;;;2.20;96.00;;;;;;5012088;28;20018;-80
2020/12/09 05:28:43;;;;;;;25.05;17.85;;;2.20;99.90;;;;;;4995400;28;20049;-80
2020/12/09 05:31:18;;;;;;;26.02;17.83;;;2.20;99.90;;;;;;5011908;28;20032;-79
2020/12/09 05:33:43;;;;;;;26.85;19.60;;;2.30;99.90;;;;;;5012398;28;20057;-80
2020/12/09 05:36:09;;;;;;;23.13;17.60;;;3.60;96.40;;;;;;5011714;28;20018;-79
2020/12/09 05:38:35;;;;;;;24.73;18.08;;;2.10;99.90;;;;;;4995625;28;20113;-79
2020/12/09 05:41:00;;;;;;;23.88;17.40;;;2.00;99.90;;;;;;5012054;28;20026;-78
2020/12/09 05:43:26;;;;;;;24.02;17.92;;;2.10;99.90;;;;;;5011848;28;20030;-81
2020/12/09 05:45:52;;;;;;;21.58;17.33;;;2.00;99.90;;;;;;4979377;28;20022;-79
2020/12/09 05:48:17;;;;;;;25.35;18.85;;;2.30;99.90;;;;;;5011933;28;20033;-80
2020/12/09 05:51:06;;;;;;;25.23;17.48;;;1.90;99.90;;;;;;5012938;28;20149;-79
2020/12/09 05:53:34;;;;;;;27.80;17.52;;;2.30;99.90;;;;;;5011813;28;20034;-77
2020/12/09 05:56:21;;;;;;;25.88;17.38;;;1.90;99.90;;;;;;4995398;28;20379;-78
2020/12/09 05:58:46;;;;;;;27.58;18.25;;;2.90;96.60;;;;;;5011842;28;20105;-78
2020/12/09 06:01:25;;;;;;;27.13;19.73;;;3.20;95.90;;;;;;4995570;28;20401;-79
2020/12/09 06:03:52;;;;;;;27.13;18.08;;;3.40;96.20;;;;;;5011894;28;20029;-79
2020/12/09 06:06:31;;;;;;;26.33;17.63;;;2.30;99.90;;;;;;5011793;28;20056;-79
2020/12/09 06:08:57;;;;;;;19.67;15.90;;;2.80;96.40;;;;;;5011447;28;20026;-80
2020/12/09 06:11:24;;;;;;;23.70;17.00;;;2.10;99.90;;;;;;4995083;28;20037;-78
2020/12/09 06:13:50;;;;;;;24.48;17.02;;;2.30;96.70;;;;;;5011343;28;20049;-78
2020/12/09 06:16:17;;;;;;;22.88;17.20;;;1.90;99.90;;;;;;5011445;28;20030;-80
2020/12/09 06:18:45;;;;;;;22.75;16.27;;;1.90;99.90;;;;;;4995546;28;20045;-78
2020/12/09 06:21:10;;;;;;;24.73;16.05;;;2.00;99.90;;;;;;4995249;28;20057;-80
2020/12/09 06:23:36;;;;;;;27.00;18.77;;;1.80;99.90;;;;;;5012949;28;20474;-80
2020/12/09 06:26:02;;;;;;;40.50;29.85;;;2.00;96.40;;;;;;5015153;28;20080;-79
2020/12/09 06:28:29;;;;;;;110.03;57.97;;;1.90;99.90;;;;;;4998252;28;20050;-79
2020/12/09 06:30:56;;;;;;;37.15;25.50;;;3.60;96.60;;;;;;5014988;28;20417;-80
2020/12/09 06:33:40;;;;;;;25.40;16.88;;;1.80;99.90;;;;;;5014932;28;20033;-80
2020/12/09 06:36:28;;;;;;;24.23;16.50;;;2.00;99.90;;;;;;5014924;28;20460;-79
2020/12/09 06:39:12;;;;;;;18.73;15.02;;;1.90;94.60;;;;;;5015355;28;20120;-80
2020/12/09 06:41:45;;;;;;;17.83;13.43;;;1.90;94.50;;;;;;5016347;28;20030;-79
2020/12/09 06:44:11;;;;;;;19.13;13.25;;;1.80;94.40;;;;;;5016310;28;20029;-79
2020/12/09 06:46:52;;;;;;;15.57;12.60;;;1.80;99.90;;;;;;5014771;28;20117;-79
2020/12/09 06:49:30;;;;;;;19.27;13.98;;;2.50;95.70;;;;;;5016014;28;20030;-79
2020/12/09 06:51:56;;;;;;;17.63;13.75;;;2.00;99.90;;;;;;5016189;28;20018;-79
2020/12/09 06:54:22;;;;;;;19.38;15.25;;;;;;;;;;5014679;28;20044;-79
2020/12/09 06:57:15;;;;;;;28.38;21.30;;;2.00;94.20;;;;;;5014566;28;20014;-79
2020/12/09 06:59:45;;;;;;;20.40;17.77;;;2.10;99.90;;;;;;5016005;28;20034;-79
2020/12/09 07:02:11;;;;;;;19.58;15.35;;;;;;;;;;4998617;28;20519;-79
2020/12/09 07:04:57;;;;;;;17.90;14.80;;;2.00;99.70;;;;;;5014734;28;20030;-79
2020/12/09 07:07:35;;;;;;;20.05;15.70;;;2.20;94.50;;;;;;5015974;28;20022;-79
2020/12/09 07:10:04;;;;;;;20.23;15.10;;;2.00;94.60;;;;;;4982688;28;20030;-79
2020/12/09 07:12:35;;;;;;;18.67;14.85;;;2.30;99.90;;;;;;4982098;28;20120;-79
2020/12/09 07:15:00;;;;;;;17.35;13.38;;;2.10;99.90;;;;;;5014612;28;20361;-78
2020/12/09 07:17:27;;;;;;;18.40;13.82;;;2.70;95.70;;;;;;5014540;28;20026;-79
2020/12/09 07:19:55;;;;;;;17.23;13.25;;;2.60;95.50;;;;;;5015632;28;20045;-79
2020/12/09 07:22:21;;;;;;;19.92;14.57;;;;;;;;;;5014162;28;20026;-79
2020/12/09 07:24:47;;;;;;;17.25;13.88;;;2.20;99.90;;;;;;5014449;28;20037;-79
2020/12/09 07:27:12;;;;;;;15.65;12.63;;;2.00;99.90;;;;;;5015478;28;20464;-79
2020/12/09 07:29:41;;;;;;;16.70;13.20;;;2.10;99.90;;;;;;5027547;28;20026;-87
2020/12/09 07:32:07;;;;;;;16.52;12.52;;;3.00;96.50;;;;;;5017683;28;20108;-88
2020/12/09 07:34:48;;;;;;;15.88;11.80;;;3.50;95.30;;;;;;4998473;28;20029;-87
2020/12/09 07:37:16;;;;;;;16.02;11.50;;;2.30;94.10;;;;;;5026876;28;20498;-86
2020/12/09 07:39:42;;;;;;;15.98;11.63;;;2.50;99.90;;;;;;4991097;28;20025;-80
2020/12/09 07:42:07;;;;;;;16.08;12.30;;;2.60;94.60;;;;;;5026727;28;20368;-79
2020/12/09 07:44:39;;;;;;;18.10;13.45;;;3.50;94.60;;;;;;5033134;28;20432;-79
2020/12/09 07:47:05;;;;;;;18.95;13.27;;;3.00;94.40;;;;;;5031413;28;20032;-79
2020/12/09 07:49:30;;;;;;;18.98;12.38;;;2.80;94.40;;;;;;5016672;28;20037;-80
2020/12/09 07:51:57;;;;;;;16.90;12.13;;;2.10;99.90;;;;;;5016998;28;20080;-78
2020/12/09 07:54:24;;;;;;;16.02;13.38;;;2.70;94.50;;;;;;5000826;28;20056;-79
2020/12/09 07:56:51;;;;;;;16.92;12.75;;;2.20;94.00;;;;;;5016746;28;20083;-80
2020/12/09 07:59:17;;;;;;;21.92;14.05;;;2.70;94.50;;;;;;5016978;28;20045;-80
2020/12/09 08:01:42;;;;;;;20.38;13.80;;;2.30;94.60;;;;;;5016689;28;20057;-80
2020/12/09 08:04:09;;;;;;;19.17;12.27;;;2.10;99.90;;;;;;5016511;28;20049;-80
2020/12/09 08:06:35;;;;;;;18.33;13.80;;;3.30;95.00;;;;;;5016874;28;20033;-80
2020/12/09 08:09:14;;;;;;;18.52;12.52;;;3.60;94.90;;;;;;5015979;28;20466;-83
2020/12/09 08:11:43;;;;;;;16.83;13.13;;;3.60;94.90;;;;;;5016637;28;20513;-83
2020/12/09 08:14:09;;;;;;;16.65;12.93;;;;;;;;;;5000247;28;20080;-81
2020/12/09 08:16:35;;;;;;;16.25;12.65;;;;;;;;;;5016182;28;20028;-80
2020/12/09 08:19:07;;;;;;;19.00;13.07;;;2.20;99.50;;;;;;5032902;28;20030;-81
2020/12/09 08:21:34;;;;;;;16.95;12.57;;;3.40;95.20;;;;;;5016501;28;20403;-80
2020/12/09 08:23:59;;;;;;;17.45;12.95;;;2.30;99.90;;;;;;5016377;28;20037;-81
2020/12/09 08:46:05;;;;;;;;;;;;;;;;;;;;;
2020/12/09 08:51:53;;;;;;;15.52;11.30;;;5.30;94.70;;;;;;4979363;28;20110;-77
2020/12/09 08:54:19;;;;;;;18.85;12.57;;;;;;;;;;4994705;28;20509;-78
2020/12/09 08:56:44;;;;;;;18.83;13.18;;;2.60;93.20;;;;;;4994316;28;20030;-78
2020/12/09 08:59:12;;;;;;;22.10;13.43;;;2.60;99.90;;;;;;4994980;28;20022;-78
2020/12/09 09:01:39;;;;;;;17.42;11.98;;;4.10;93.90;;;;;;4962065;28;20032;-84
2020/12/09 09:04:07;;;;;;;19.13;12.85;;;2.60;93.40;;;;;;4961687;28;20381;-79
2020/12/09 09:06:33;;;;;;;18.75;13.43;;;3.90;93.90;;;;;;4994611;28;20026;-80
2020/12/09 09:08:59;;;;;;;17.88;13.82;;;2.90;93.80;;;;;;4994361;28;20118;-80
2020/12/09 09:11:25;;;;;;;20.45;13.88;;;2.50;99.90;;;;;;4977598;28;20026;-80
2020/12/09 09:13:52;;;;;;;21.38;14.45;;;3.50;94.00;;;;;;4977238;28;20469;-80
2020/12/09 09:16:18;;;;;;;25.67;16.90;;;2.70;93.80;;;;;;4977466;28;20483;-79
2020/12/09 09:18:44;;;;;;;20.67;14.32;;;3.40;94.00;;;;;;4977254;28;20121;-80
2020/12/09 09:21:10;;;;;;;21.35;15.05;;;3.60;94.20;;;;;;4961370;28;20030;-82
2020/12/09 09:23:36;;;;;;;23.00;16.35;;;;;;;;;;4976785;28;20030;-81
2020/12/09 09:26:02;;;;;;;21.73;15.27;;;2.50;97.10;;;;;;4976488;28;20022;-79
2020/12/09 09:28:27;;;;;;;23.23;16.48;;;3.30;93.90;;;;;;4992573;28;20389;-79
2020/12/09 09:30:53;;;;;;;22.70;16.15;;;2.60;93.90;;;;;;4976765;28;20342;-79
2020/12/09 09:33:18;;;;;;;21.48;14.80;;;3.90;94.30;;;;;;4976574;28;20037;-79
2020/12/09 09:35:44;;;;;;;22.08;16.30;;;;;;;;;;4993705;28;20027;-79
2020/12/09 09:38:10;;;;;;;22.75;15.90;;;2.60;97.60;;;;;;4976861;28;20046;-79
2020/12/09 09:40:36;;;;;;;23.67;16.10;;;3.60;94.20;;;;;;4994294;28;20469;-79
2020/12/09 09:43:01;;;;;;;20.73;15.05;;;3.30;94.30;;;;;;4976533;28;20022;-79
2020/12/09 09:45:27;;;;;;;22.05;15.50;;;2.90;94.30;;;;;;4976257;28;20038;-79
2020/12/09 09:47:53;;;;;;;24.95;18.85;;;;;;;;;;4991742;28;20410;-79
2020/12/09 09:50:20;;;;;;;28.75;17.98;;;2.90;98.00;;;;;;4991403;28;20019;-79
2020/12/09 09:52:46;;;;;;;26.33;17.13;;;3.80;94.60;;;;;;4975586;28;20038;-79
2020/12/09 09:55:11;;;;;;;28.67;18.83;;;3.70;94.30;;;;;;4975439;28;20045;-79
2020/12/09 09:57:37;;;;;;;28.48;18.58;;;2.90;94.00;;;;;;4975176;28;20036;-79
2020/12/09 10:00:06;;;;;;;31.58;17.58;;;3.00;99.00;;;;;;4990923;28;20030;-79
2020/12/09 10:02:31;;;;;;;26.38;17.25;;;3.80;99.70;;;;;;4975404;28;20031;-79
2020/12/09 10:04:57;;;;;;;29.27;17.30;;;3.50;94.10;;;;;;4975398;28;20026;-79
2020/12/09 10:07:23;;;;;;;31.17;19.05;;;3.40;99.90;;;;;;4975394;28;20077;-79
2020/12/09 10:09:49;;;;;;;27.15;18.77;;;3.30;94.00;;;;;;4975246;28;20035;-79
2020/12/09 10:12:15;;;;;;;31.08;19.27;;;3.10;98.50;;;;;;4974972;28;20073;-79
2020/12/09 10:14:41;;;;;;;30.38;18.83;;;3.00;98.90;;;;;;4992618;28;20030;-79
2020/12/09 10:17:06;;;;;;;26.90;18.85;;;3.50;93.90;;;;;;4989993;28;20228;-81
2020/12/09 10:19:32;;;;;;;26.75;18.42;;;3.30;93.80;;;;;;4987705;28;20033;-80
2020/12/09 10:22:01;;;;;;;26.50;19.08;;;3.20;93.60;;;;;;4988291;28;20041;-80
2020/12/09 10:24:27;;;;;;;26.77;17.75;;;;;;;;;;4989115;28;20030;-80
2020/12/09 10:26:52;;;;;;;27.50;17.95;;;3.20;97.40;;;;;;4989416;28;20022;-81
2020/12/09 10:29:18;;;;;;;24.88;17.50;;;3.90;94.00;;;;;;4988801;28;20096;-80
2020/12/09 10:31:48;;;;;;;20.63;15.73;;;3.40;94.00;;;;;;4988138;28;20112;-79
2020/12/09 10:34:18;;;;;;;25.17;17.77;;;3.70;93.60;;;;;;4978608;28;20034;-82
2020/12/09 10:37:05;;;;;;;26.40;17.17;;;3.20;96.90;;;;;;4972076;28;20526;-83
2020/12/09 10:39:31;;;;;;;25.40;18.30;;;6.10;94.00;;;;;;4972232;28;20027;-82
2020/12/09 10:41:57;;;;;;;26.25;18.40;;;;;;;;;;4987566;28;20092;-82
2020/12/09 10:44:23;;;;;;;29.17;18.98;;;3.00;92.90;;;;;;4987779;28;20025;-82
2020/12/09 10:46:48;;;;;;;26.38;16.50;;;3.10;99.90;;;;;;4971010;28;20050;-80
2020/12/09 10:49:17;;;;;;;29.42;19.52;;;3.70;93.50;;;;;;4988015;28;20076;-79
2020/12/09 10:51:46;;;;;;;28.52;17.77;;;3.00;93.50;;;;;;4987950;28;20037;-80
2020/12/09 10:54:13;;;;;;;29.58;19.13;;;2.80;99.90;;;;;;4987691;28;20396;-79
2020/12/09 10:56:39;;;;;;;28.30;19.05;;;3.00;93.30;;;;;;4988372;28;20022;-79
2020/12/09 10:59:04;;;;;;;26.27;17.17;;;2.90;99.90;;;;;;4987715;28;20034;-78
2020/12/09 11:01:33;;;;;;;29.83;18.08;;;3.10;99.90;;;;;;4988267;28;20031;-79
2020/12/09 11:03:59;;;;;;;26.67;17.55;;;2.90;93.60;;;;;;4988023;28;20088;-78
2020/12/09 11:06:28;;;;;;;28.55;18.85;;;3.00;99.90;;;;;;4988073;28;20050;-79
2020/12/09 11:08:55;;;;;;;26.88;17.38;;;2.90;99.90;;;;;;4987628;28;20543;-80
2020/12/09 11:11:21;;;;;;;26.73;17.88;;;3.00;99.90;;;;;;4990608;28;20045;-78
2020/12/09 11:13:47;;;;;;;27.10;18.17;;;;;;;;;;4990541;28;20544;-79
2020/12/09 11:16:16;;;;;;;28.17;17.85;;;2.80;99.90;;;;;;4991275;28;20030;-78
2020/12/09 11:18:42;;;;;;;25.50;16.85;;;3.30;93.50;;;;;;4974820;28;20026;-79
2020/12/09 11:21:09;;;;;;;26.98;16.85;;;3.80;93.50;;;;;;4991123;28;20034;-79
2020/12/09 11:23:34;;;;;;;23.00;16.45;;;3.00;93.30;;;;;;4991222;28;20034;-80
2020/12/09 11:26:00;;;;;;;24.65;16.60;;;;;;;;;;4990038;28;20403;-79
2020/12/09 11:28:26;;;;;;;22.48;15.00;;;3.10;96.80;;;;;;4975272;28;20069;-79
2020/12/09 11:30:55;;;;;;;22.77;16.20;;;4.00;93.60;;;;;;4990156;28;20058;-79
2020/12/09 11:33:21;;;;;;;24.98;16.48;;;3.30;99.90;;;;;;4975621;28;20416;-79
2020/12/09 11:35:46;;;;;;;26.88;18.30;;;3.20;99.60;;;;;;4990719;28;20031;-79
2020/12/09 11:38:12;;;;;;;26.45;17.77;;;4.10;93.40;;;;;;4991372;28;20027;-78
2020/12/09 11:40:38;;;;;;;29.70;18.80;;;3.90;93.10;;;;;;4992329;28;20061;-79
2020/12/09 11:43:03;;;;;;;26.40;18.23;;;3.10;93.00;;;;;;4991748;28;20030;-79
2020/12/09 11:45:31;;;;;;;26.55;18.35;;;3.70;93.40;;;;;;4990690;28;20034;-79
2020/12/09 11:47:57;;;;;;;28.25;18.63;;;2.90;99.90;;;;;;4989838;28;20305;-79
2020/12/09 11:50:23;;;;;;;28.58;19.48;;;4.40;93.80;;;;;;4991455;28;20475;-79
2020/12/09 11:52:49;;;;;;;27.55;18.52;;;3.90;93.90;;;;;;4959278;28;20105;-78
2020/12/09 11:55:14;;;;;;;27.35;18.33;;;3.20;93.80;;;;;;4990990;28;20038;-79
2020/12/09 11:57:40;;;;;;;29.67;19.73;;;3.90;93.60;;;;;;4991813;28;20037;-79
2020/12/09 12:00:05;;;;;;;32.05;20.25;;;2.50;99.90;;;;;;4974603;28;20117;-78
2020/12/09 12:02:31;;;;;;;28.80;18.92;;;3.50;93.40;;;;;;4991172;28;20037;-78
2020/12/09 12:04:59;;;;;;;31.58;18.95;;;3.00;93.30;;;;;;4990463;28;20045;-81
2020/12/09 12:07:25;;;;;;;23.60;15.93;;;3.70;97.00;;;;;;4990793;28;20461;-86
2020/12/09 12:09:51;;;;;;;24.42;15.55;;;;;;;;;;4974871;28;20037;-79
2020/12/09 12:12:16;;;;;;;23.20;14.55;;;2.80;96.90;;;;;;4990318;28;20041;-80
2020/12/09 12:14:43;;;;;;;23.40;14.73;;;4.30;91.20;;;;;;4990560;28;20092;-80
2020/12/09 12:17:10;;;;;;;22.80;16.35;;;3.90;91.20;;;;;;4990167;28;20019;-78
2020/12/09 12:19:35;;;;;;;22.02;16.05;;;3.70;91.60;;;;;;4991671;28;20100;-79
2020/12/09 12:22:02;;;;;;;25.48;16.33;;;3.60;92.00;;;;;;4989607;28;20069;-80
2020/12/09 12:24:28;;;;;;;25.42;15.23;;;;;;;;;;4973845;28;20576;-80
2020/12/09 12:26:54;;;;;;;22.05;15.45;;;3.50;95.50;;;;;;4990663;28;20085;-80
2020/12/09 12:29:19;;;;;;;22.75;15.55;;;3.40;92.30;;;;;;4992254;28;20062;-84
2020/12/09 12:31:45;;;;;;;28.17;18.60;;;3.30;92.90;;;;;;4993190;28;20034;-82
2020/12/09 12:34:11;;;;;;;27.80;18.48;;;4.70;93.70;;;;;;4976804;28;20093;-82
2020/12/09 12:36:37;;;;;;;26.20;17.45;;;;;;;;;;4990288;28;20421;-83
2020/12/09 12:39:03;;;;;;;27.60;17.40;;;3.10;96.50;;;;;;4993869;28;20046;-81
2020/12/09 12:41:29;;;;;;;28.00;18.33;;;6.00;93.80;;;;;;4992856;28;20032;-80
2020/12/09 12:43:54;;;;;;;25.08;16.42;;;4.00;93.50;;;;;;4976734;28;20038;-80
2020/12/09 12:46:21;;;;;;;26.48;17.17;;;4.00;93.60;;;;;;4992299;28;20058;-80
2020/12/09 12:48:47;;;;;;;27.00;18.20;;;;;;;;;;4973198;28;20035;-82
2020/12/09 12:51:19;;;;;;;25.05;17.67;;;4.90;99.90;;;;;;4973793;28;20073;-82
2020/12/09 12:53:45;;;;;;;25.38;17.98;;;3.00;93.30;;;;;;4992422;28;20062;-82
2020/12/09 12:56:24;;;;;;;25.15;17.10;;;2.90;99.90;;;;;;4976774;28;20065;-82
2020/12/09 12:58:50;;;;;;;24.23;17.38;;;3.90;93.50;;;;;;4976517;28;20459;-80
2020/12/09 13:01:15;;;;;;;22.88;16.67;;;2.60;99.90;;;;;;4990341;28;20025;-80
2020/12/09 13:03:41;;;;;;;23.27;17.13;;;3.10;93.80;;;;;;4990410;28;20404;-81
2020/12/09 13:06:07;;;;;;;24.70;17.10;;;4.20;93.90;;;;;;4990295;28;20157;-80
2020/12/09 13:08:36;;;;;;;22.90;16.13;;;2.90;93.80;;;;;;4990106;28;20056;-81
2020/12/09 13:11:02;;;;;;;22.48;15.90;;;3.20;93.90;;;;;;4974686;28;20117;-80
2020/12/09 13:13:28;;;;;;;21.38;15.30;;;3.00;99.90;;;;;;4991625;28;20084;-80
2020/12/09 13:15:54;;;;;;;22.73;16.40;;;3.10;93.90;;;;;;4992602;28;20485;-81